Time;durP1;ratioP1;P1;durP2;ratioP2;P2;SDS_P1;SDS_P2;PMS_P1;PMS_P2;Temp;Humidity;BMP_temperature;BMP_pressure;BME280_temperature;BME280_humidity;BME280_pressure;Samples;Min_cycle;Max_cycle;Signal;HPM_P1;HPM_P2
2021/01/11 00:00:23;;;;;;;22.95;14.88;;;2.90;99.90;;;;;;5055025;28;20021;-80
2021/01/11 00:02:49;;;;;;;19.98;14.25;;;2.90;99.90;;;;;;5049623;28;20025;-80
2021/01/11 00:05:15;;;;;;;17.58;12.80;;;2.90;99.90;;;;;;5051658;28;20750;-79
2021/01/11 00:07:42;;;;;;;21.33;14.32;;;2.90;99.90;;;;;;5052531;28;20017;-79
2021/01/11 00:10:09;;;;;;;18.15;12.90;;;2.90;99.90;;;;;;5053706;28;20208;-79
2021/01/11 00:12:39;;;;;;;17.55;13.35;;;2.90;99.90;;;;;;5041902;28;20024;-79
2021/01/11 00:15:07;;;;;;;20.35;13.50;;;3.00;99.90;;;;;;5051560;28;20033;-79
2021/01/11 00:17:33;;;;;;;20.92;14.15;;;2.90;99.90;;;;;;5052725;28;20021;-79
2021/01/11 00:19:59;;;;;;;23.23;15.15;;;2.90;99.90;;;;;;5047066;28;20013;-79
2021/01/11 00:22:24;;;;;;;23.35;15.13;;;2.90;99.90;;;;;;5052636;28;20020;-79
2021/01/11 00:24:50;;;;;;;24.45;14.20;;;2.90;99.90;;;;;;5058113;28;20016;-79
2021/01/11 00:27:15;;;;;;;21.13;15.13;;;2.90;99.90;;;;;;5065714;28;20029;-79
2021/01/11 00:29:41;;;;;;;28.10;16.10;;;2.90;99.90;;;;;;5063916;28;20017;-79
2021/01/11 00:32:06;;;;;;;25.00;16.17;;;2.90;99.90;;;;;;5069143;28;20471;-80
2021/01/11 00:34:32;;;;;;;26.00;16.77;;;2.90;99.90;;;;;;5061306;28;20033;-79
2021/01/11 00:36:58;;;;;;;29.52;16.20;;;2.90;99.90;;;;;;5058938;28;20025;-79
2021/01/11 00:39:25;;;;;;;25.58;16.98;;;2.90;99.90;;;;;;5056646;28;20009;-79
2021/01/11 00:41:59;;;;;;;27.20;16.30;;;2.90;99.90;;;;;;5065111;28;20074;-79
2021/01/11 00:44:25;;;;;;;26.73;17.70;;;2.90;99.90;;;;;;5060708;28;20021;-79
2021/01/11 00:46:51;;;;;;;27.95;18.60;;;2.90;99.90;;;;;;5059283;28;20024;-79
2021/01/11 00:49:17;;;;;;;27.20;17.20;;;2.90;99.90;;;;;;5062331;28;20029;-79
2021/01/11 00:51:42;;;;;;;30.48;18.45;;;2.90;99.90;;;;;;5052703;28;20236;-79
2021/01/11 00:54:08;;;;;;;30.50;17.23;;;2.90;99.90;;;;;;5066602;28;20033;-79
2021/01/11 00:56:34;;;;;;;27.40;16.67;;;2.90;99.90;;;;;;5061116;28;20025;-79
2021/01/11 00:58:59;;;;;;;27.08;17.65;;;2.90;99.90;;;;;;5052901;28;20040;-79
2021/01/11 01:01:25;;;;;;;30.05;17.50;;;2.90;99.90;;;;;;5052813;28;20041;-79
2021/01/11 01:03:51;;;;;;;30.08;17.83;;;2.90;99.90;;;;;;5050995;28;20025;-79
2021/01/11 01:06:17;;;;;;;31.80;18.83;;;2.90;99.90;;;;;;5050512;28;20029;-79
2021/01/11 01:08:43;;;;;;;26.33;16.92;;;2.90;99.90;;;;;;5050761;28;20036;-80
2021/01/11 01:11:10;;;;;;;31.75;18.88;;;2.90;99.90;;;;;;5050506;28;20029;-79
2021/01/11 01:13:35;;;;;;;28.20;17.98;;;2.90;99.90;;;;;;5050710;28;20017;-79
2021/01/11 01:16:01;;;;;;;26.58;16.90;;;2.90;99.90;;;;;;5049687;28;20029;-79
2021/01/11 01:18:27;;;;;;;23.42;15.60;;;2.90;99.90;;;;;;5049781;28;20025;-79
2021/01/11 01:20:52;;;;;;;27.00;17.10;;;2.90;99.90;;;;;;5050163;28;20491;-79
2021/01/11 01:23:18;;;;;;;28.33;18.42;;;2.90;99.90;;;;;;5050533;28;20479;-78
2021/01/11 01:25:44;;;;;;;28.27;18.50;;;2.90;99.90;;;;;;5049761;28;20490;-79
2021/01/11 01:28:09;;;;;;;28.98;18.27;;;2.90;99.90;;;;;;5050182;28;20036;-79
2021/01/11 01:30:35;;;;;;;31.25;19.98;;;2.90;99.90;;;;;;5050104;28;20025;-79
2021/01/11 01:33:00;;;;;;;26.50;18.73;;;2.90;99.90;;;;;;5049982;28;20454;-79
2021/01/11 01:35:26;;;;;;;30.83;18.52;;;2.90;99.90;;;;;;5050888;28;20430;-79
2021/01/11 01:37:52;;;;;;;30.15;19.33;;;2.90;99.90;;;;;;5048620;28;20025;-79
2021/01/11 01:40:18;;;;;;;28.38;17.80;;;2.90;99.90;;;;;;5048213;28;20525;-79
2021/01/11 01:42:44;;;;;;;26.13;17.45;;;2.90;99.90;;;;;;5047080;28;20024;-79
2021/01/11 01:45:10;;;;;;;30.98;17.25;;;2.90;99.90;;;;;;5046231;28;20432;-79
2021/01/11 01:47:37;;;;;;;27.90;17.42;;;2.90;99.90;;;;;;5048349;28;20021;-79
2021/01/11 01:50:05;;;;;;;31.60;19.23;;;2.90;99.90;;;;;;5059186;28;20021;-79
2021/01/11 01:52:31;;;;;;;23.65;17.08;;;2.90;99.90;;;;;;5057315;28;20024;-79
2021/01/11 01:54:56;;;;;;;28.83;16.88;;;2.90;99.90;;;;;;5055181;28;20027;-79
2021/01/11 01:57:22;;;;;;;28.20;18.30;;;2.90;99.90;;;;;;5050598;28;20460;-80
2021/01/11 01:59:49;;;;;;;28.75;17.75;;;2.90;99.90;;;;;;5042925;28;20035;-79
2021/01/11 02:02:18;;;;;;;28.23;18.52;;;2.90;99.90;;;;;;5046543;28;20021;-79
2021/01/11 02:04:44;;;;;;;26.27;17.08;;;2.90;99.90;;;;;;5049893;28;20063;-79
2021/01/11 02:07:22;;;;;;;29.33;17.30;;;2.90;99.90;;;;;;5050643;28;20037;-79
2021/01/11 02:10:02;;;;;;;29.90;18.92;;;2.90;99.90;;;;;;5049111;28;20029;-79
2021/01/11 02:12:52;;;;;;;24.58;16.48;;;2.90;99.90;;;;;;5049989;28;20033;-79
2021/01/11 02:15:24;;;;;;;28.40;17.88;;;2.90;99.90;;;;;;5048602;28;20033;-79
2021/01/11 02:18:02;;;;;;;28.90;18.38;;;2.90;99.90;;;;;;5048127;28;20082;-79
2021/01/11 02:20:46;;;;;;;33.80;18.10;;;2.90;99.90;;;;;;5047288;28;20029;-79
2021/01/11 02:23:23;;;;;;;29.75;17.42;;;2.90;99.90;;;;;;5048487;28;20017;-79
2021/01/11 02:26:08;;;;;;;27.75;18.00;;;2.90;99.90;;;;;;5053608;28;20025;-79
2021/01/11 02:28:51;;;;;;;26.95;17.48;;;2.90;99.90;;;;;;5054763;28;20025;-79
2021/01/11 02:31:18;;;;;;;29.20;18.10;;;2.90;99.90;;;;;;5066780;28;20028;-79
2021/01/11 02:33:45;;;;;;;29.20;17.83;;;2.90;99.90;;;;;;5065335;28;20033;-80
2021/01/11 02:36:12;;;;;;;28.17;17.85;;;2.90;99.90;;;;;;5058002;28;20060;-80
2021/01/11 02:38:38;;;;;;;28.25;17.70;;;2.90;99.90;;;;;;5058859;28;20105;-80
2021/01/11 02:41:04;;;;;;;30.08;18.50;;;2.90;99.90;;;;;;5053470;28;20032;-80
2021/01/11 02:43:30;;;;;;;29.15;17.15;;;3.00;99.90;;;;;;5053014;28;20028;-78
2021/01/11 02:45:56;;;;;;;27.92;17.35;;;2.90;99.90;;;;;;5050765;28;20025;-78
2021/01/11 02:48:54;;;;;;;27.92;17.27;;;2.90;99.90;;;;;;5050750;28;20025;-78
2021/01/11 02:51:25;;;;;;;30.30;17.52;;;2.90;99.90;;;;;;5030366;28;20065;-78
2021/01/11 02:54:13;;;;;;;34.75;19.45;;;3.00;99.90;;;;;;5050351;28;20063;-78
2021/01/11 02:56:55;;;;;;;27.85;18.45;;;3.00;99.90;;;;;;5042733;28;20612;-78
2021/01/11 03:00:02;;;;;;;31.50;18.13;;;2.90;99.90;;;;;;5047868;28;20044;-78
2021/01/11 03:02:31;;;;;;;35.55;19.05;;;2.90;99.90;;;;;;5024540;28;20519;-78
2021/01/11 03:04:58;;;;;;;38.85;21.88;;;3.00;99.90;;;;;;5012980;28;20032;-78
2021/01/11 03:07:24;;;;;;;33.03;19.98;;;3.00;99.90;;;;;;5030607;28;20043;-78
2021/01/11 03:09:49;;;;;;;39.50;21.80;;;3.00;99.90;;;;;;5051141;28;20025;-78
2021/01/11 03:12:16;;;;;;;38.58;21.00;;;3.00;99.90;;;;;;5050227;28;20021;-77
2021/01/11 03:14:41;;;;;;;39.35;21.70;;;3.00;99.90;;;;;;5036757;28;20091;-79
2021/01/11 03:17:07;;;;;;;40.30;22.30;;;3.00;99.90;;;;;;5045601;28;20028;-78
2021/01/11 03:19:33;;;;;;;37.67;21.45;;;3.00;99.90;;;;;;5049012;28;20025;-78
2021/01/11 03:21:59;;;;;;;45.28;23.95;;;3.00;99.90;;;;;;5048741;28;20101;-78
2021/01/11 03:24:25;;;;;;;47.30;24.13;;;3.00;99.90;;;;;;5048748;28;20116;-78
2021/01/11 03:26:51;;;;;;;42.92;22.17;;;3.10;99.90;;;;;;5045205;28;20096;-78
2021/01/11 03:29:18;;;;;;;43.85;22.80;;;3.00;99.90;;;;;;5044684;28;20391;-78
2021/01/11 03:31:45;;;;;;;43.28;22.80;;;3.00;99.90;;;;;;5060759;28;20028;-77
2021/01/11 03:34:11;;;;;;;48.70;24.65;;;3.00;99.90;;;;;;5047118;28;20017;-78
2021/01/11 03:36:38;;;;;;;41.80;23.58;;;3.00;99.90;;;;;;5049126;28;20510;-77
2021/01/11 03:39:05;;;;;;;44.72;24.88;;;3.00;99.90;;;;;;5037092;28;20032;-78
2021/01/11 03:41:35;;;;;;;52.88;27.27;;;3.10;99.90;;;;;;5048652;28;20383;-78
2021/01/11 03:44:01;;;;;;;43.97;25.00;;;3.10;99.90;;;;;;5050960;28;20391;-77
2021/01/11 03:46:28;;;;;;;42.47;24.98;;;3.00;99.90;;;;;;5051558;28;20154;-78
2021/01/11 03:48:54;;;;;;;52.92;26.80;;;3.00;99.90;;;;;;5051382;28;20025;-77
2021/01/11 03:51:19;;;;;;;55.67;27.38;;;3.00;99.90;;;;;;5051376;28;20032;-78
2021/01/11 03:53:48;;;;;;;53.25;27.08;;;3.10;99.90;;;;;;5052296;28;20029;-78
2021/01/11 03:56:14;;;;;;;59.08;28.65;;;3.10;99.90;;;;;;5057910;28;20029;-78
2021/01/11 03:58:39;;;;;;;53.90;26.98;;;3.10;99.90;;;;;;5052007;28;20102;-78
2021/01/11 04:01:05;;;;;;;52.28;29.83;;;3.10;99.90;;;;;;5049963;28;20037;-78
2021/01/11 04:03:31;;;;;;;54.60;28.08;;;3.10;99.90;;;;;;5054948;28;20023;-78
2021/01/11 04:05:58;;;;;;;56.55;27.63;;;3.00;99.90;;;;;;5047050;28;20395;-79
2021/01/11 04:08:24;;;;;;;57.63;27.58;;;3.00;99.90;;;;;;5050653;28;20039;-77
2021/01/11 04:10:50;;;;;;;54.13;26.58;;;3.00;99.90;;;;;;5061602;28;20033;-78
2021/01/11 04:13:16;;;;;;;47.60;27.33;;;3.00;99.90;;;;;;5054758;28;20045;-78
2021/01/11 04:15:42;;;;;;;48.03;25.77;;;3.00;99.90;;;;;;5043333;28;20056;-77
2021/01/11 04:18:08;;;;;;;50.72;26.30;;;3.00;99.90;;;;;;5055838;28;20021;-78
2021/01/11 04:20:33;;;;;;;48.53;25.35;;;3.00;99.90;;;;;;5057108;28;20021;-78
2021/01/11 04:22:59;;;;;;;43.70;25.23;;;3.00;99.90;;;;;;5054268;28;20025;-78
2021/01/11 04:25:25;;;;;;;46.70;25.90;;;3.00;99.90;;;;;;5048652;28;20064;-77
2021/01/11 04:28:03;;;;;;;46.38;25.45;;;3.00;99.90;;;;;;5048130;28;20025;-77
2021/01/11 04:30:28;;;;;;;45.78;23.70;;;3.00;99.90;;;;;;5058086;28;20028;-77
2021/01/11 04:32:54;;;;;;;42.95;25.30;;;3.00;99.90;;;;;;5062211;28;20344;-77
2021/01/11 04:35:21;;;;;;;46.85;26.35;;;3.00;99.90;;;;;;5048438;28;20343;-78
2021/01/11 04:37:47;;;;;;;45.78;24.80;;;3.00;99.90;;;;;;5049815;28;20021;-77
2021/01/11 04:40:13;;;;;;;50.95;25.35;;;3.00;99.90;;;;;;5049186;28;20058;-77
2021/01/11 04:42:47;;;;;;;44.63;25.13;;;3.00;99.90;;;;;;5043826;28;20021;-78
2021/01/11 04:45:18;;;;;;;46.03;24.60;;;3.00;99.90;;;;;;5047549;28;20021;-78
2021/01/11 04:47:44;;;;;;;40.75;22.95;;;3.00;99.90;;;;;;5048646;28;20131;-78
2021/01/11 04:50:11;;;;;;;49.22;25.33;;;3.00;99.90;;;;;;5049004;28;20025;-78
2021/01/11 04:52:38;;;;;;;45.17;26.05;;;3.00;99.90;;;;;;5062537;28;20063;-78
2021/01/11 04:55:06;;;;;;;43.55;23.98;;;3.00;99.90;;;;;;5049031;28;20480;-78
2021/01/11 04:57:40;;;;;;;44.17;25.35;;;3.00;99.90;;;;;;5051460;28;20036;-78
2021/01/11 05:00:09;;;;;;;48.10;25.05;;;3.00;99.90;;;;;;5050766;28;20041;-78
2021/01/11 05:02:43;;;;;;;47.55;26.92;;;3.00;99.90;;;;;;5050852;28;20087;-77
2021/01/11 05:05:09;;;;;;;53.72;25.92;;;3.00;99.90;;;;;;5047964;28;20025;-77
2021/01/11 05:07:35;;;;;;;43.30;25.63;;;3.00;99.90;;;;;;5048793;28;20396;-77
2021/01/11 05:10:00;;;;;;;42.67;26.25;;;3.00;99.90;;;;;;5050117;28;20025;-77
2021/01/11 05:12:27;;;;;;;50.40;26.63;;;3.00;99.90;;;;;;5049673;28;20244;-77
2021/01/11 05:15:18;;;;;;;47.35;24.85;;;3.00;99.90;;;;;;5047631;28;20501;-78
2021/01/11 05:17:45;;;;;;;50.60;26.80;;;3.00;99.90;;;;;;5046518;28;20421;-78
2021/01/11 05:20:13;;;;;;;50.83;27.98;;;3.00;99.90;;;;;;5036330;28;20075;-77
2021/01/11 05:22:40;;;;;;;52.35;26.38;;;3.00;99.90;;;;;;5051144;28;20021;-78
2021/01/11 05:25:13;;;;;;;43.40;25.90;;;3.00;99.90;;;;;;5049514;28;20527;-78
2021/01/11 05:27:38;;;;;;;43.92;25.85;;;3.00;99.90;;;;;;5060379;28;20025;-79
2021/01/11 05:30:08;;;;;;;48.28;25.52;;;3.00;99.90;;;;;;5062715;28;20387;-79
2021/01/11 05:32:34;;;;;;;52.67;27.17;;;3.00;99.90;;;;;;5052297;28;20124;-78
2021/01/11 05:35:00;;;;;;;48.22;27.25;;;3.00;99.90;;;;;;5045537;28;20478;-78
2021/01/11 05:37:40;;;;;;;45.95;25.85;;;3.00;99.90;;;;;;5057728;28;20025;-77
2021/01/11 05:40:08;;;;;;;50.85;26.23;;;3.00;99.90;;;;;;5042645;28;20088;-78
2021/01/11 05:42:34;;;;;;;48.78;25.20;;;3.00;99.90;;;;;;5057064;28;20023;-78
2021/01/11 05:45:12;;;;;;;43.35;25.48;;;3.00;99.90;;;;;;5055140;28;20039;-78
2021/01/11 05:48:04;;;;;;;45.35;25.92;;;3.00;99.90;;;;;;5049052;28;20115;-78
2021/01/11 05:50:37;;;;;;;46.08;25.75;;;3.00;99.90;;;;;;5057532;28;20028;-78
2021/01/11 05:53:03;;;;;;;48.00;26.42;;;3.00;99.90;;;;;;5058291;28;20089;-78
2021/01/11 05:55:33;;;;;;;47.85;25.52;;;3.00;99.90;;;;;;5063083;28;20384;-78
2021/01/11 05:58:03;;;;;;;52.95;26.45;;;3.00;99.90;;;;;;5042787;28;20032;-78
2021/01/11 06:00:31;;;;;;;46.30;26.38;;;3.00;99.90;;;;;;5055905;28;20025;-78
2021/01/11 06:02:58;;;;;;;46.83;26.30;;;3.00;99.90;;;;;;5061052;28;20016;-78
2021/01/11 06:05:25;;;;;;;45.13;26.88;;;3.00;99.90;;;;;;5059977;28;20499;-78
2021/01/11 06:07:51;;;;;;;45.70;25.77;;;3.00;99.90;;;;;;5048933;28;20029;-78
2021/01/11 06:10:18;;;;;;;44.40;25.42;;;3.00;99.90;;;;;;5050441;28;20056;-78
2021/01/11 06:12:45;;;;;;;43.88;23.83;;;3.00;99.90;;;;;;5043175;28;20029;-78
2021/01/11 06:15:14;;;;;;;45.35;24.08;;;3.00;99.90;;;;;;5048246;28;20032;-77
2021/01/11 06:17:41;;;;;;;45.45;25.42;;;3.00;99.90;;;;;;5049858;28;20039;-78
2021/01/11 06:20:09;;;;;;;39.30;23.27;;;2.90;99.90;;;;;;5042868;28;20025;-78
2021/01/11 06:22:44;;;;;;;42.67;22.88;;;3.00;99.90;;;;;;5040377;28;20112;-78
2021/01/11 06:25:24;;;;;;;41.20;23.42;;;2.90;99.90;;;;;;5048998;28;20059;-79
2021/01/11 06:28:02;;;;;;;35.33;20.90;;;3.00;99.90;;;;;;5048840;28;20436;-79
2021/01/11 06:30:33;;;;;;;36.35;22.13;;;2.90;99.90;;;;;;5048583;28;20464;-80
2021/01/11 06:33:12;;;;;;;31.83;20.23;;;2.90;99.90;;;;;;5055466;28;20102;-78
2021/01/11 06:35:48;;;;;;;35.55;21.67;;;2.90;99.90;;;;;;5049590;28;20062;-78
2021/01/11 06:38:18;;;;;;;34.00;20.77;;;2.90;99.90;;;;;;5043546;28;20021;-77
2021/01/11 06:40:54;;;;;;;30.70;19.27;;;2.90;99.90;;;;;;5045284;28;20479;-78
2021/01/11 06:43:22;;;;;;;29.02;18.77;;;2.90;99.90;;;;;;5047881;28;20021;-78
2021/01/11 06:45:49;;;;;;;31.27;17.83;;;2.90;99.90;;;;;;5051218;28;20376;-77
2021/01/11 06:48:20;;;;;;;33.67;17.88;;;2.90;99.90;;;;;;5049303;28;20021;-78
2021/01/11 06:50:48;;;;;;;28.10;16.45;;;2.90;99.90;;;;;;5055517;28;20017;-77
2021/01/11 06:53:14;;;;;;;26.45;17.30;;;2.80;99.90;;;;;;5055885;28;20036;-77
2021/01/11 06:55:40;;;;;;;29.88;16.90;;;2.90;99.90;;;;;;5053396;28;20021;-79
2021/01/11 06:58:06;;;;;;;25.98;16.52;;;2.80;99.90;;;;;;5059493;28;20036;-78
2021/01/11 07:00:36;;;;;;;24.23;15.18;;;2.80;99.90;;;;;;5048105;28;20017;-78
2021/01/11 07:03:03;;;;;;;20.20;14.05;;;2.80;99.90;;;;;;5060691;28;20021;-79
2021/01/11 07:05:37;;;;;;;22.27;14.13;;;2.80;99.90;;;;;;5051242;28;20483;-79
2021/01/11 07:08:04;;;;;;;19.83;14.18;;;2.70;99.90;;;;;;5046760;28;20120;-79
2021/01/11 07:10:29;;;;;;;22.35;14.00;;;2.70;99.90;;;;;;5048743;28;20034;-79
2021/01/11 07:13:17;;;;;;;20.30;13.40;;;2.70;99.90;;;;;;5043247;28;20382;-79
2021/01/11 07:15:43;;;;;;;19.23;13.02;;;2.70;99.90;;;;;;5047901;28;20082;-78
2021/01/11 07:18:09;;;;;;;20.77;12.80;;;2.70;99.90;;;;;;5052604;28;20365;-78
2021/01/11 07:20:42;;;;;;;21.73;13.07;;;2.60;99.90;;;;;;5052405;28;20029;-78
2021/01/11 07:23:08;;;;;;;22.15;12.73;;;2.60;99.90;;;;;;5052473;28;20472;-79
2021/01/11 07:25:34;;;;;;;16.92;12.00;;;2.70;99.90;;;;;;5053148;28;20033;-79
2021/01/11 07:28:01;;;;;;;16.40;12.13;;;2.60;99.90;;;;;;5052259;28;20075;-78
2021/01/11 07:30:28;;;;;;;18.60;12.43;;;2.60;99.90;;;;;;5053025;28;20032;-79
2021/01/11 07:32:54;;;;;;;18.10;11.88;;;2.60;99.90;;;;;;5052307;28;20067;-80
2021/01/11 07:35:19;;;;;;;16.73;12.05;;;2.60;99.90;;;;;;5042343;28;20025;-79
2021/01/11 07:37:46;;;;;;;18.90;11.35;;;2.50;99.90;;;;;;5050052;28;20025;-78
2021/01/11 07:40:13;;;;;;;16.58;11.25;;;2.50;99.90;;;;;;5049099;28;20044;-79
2021/01/11 07:42:38;;;;;;;15.50;11.05;;;2.50;99.90;;;;;;5052926;28;20029;-78
2021/01/11 07:45:10;;;;;;;16.90;10.95;;;2.50;99.90;;;;;;5052297;28;20125;-79
2021/01/11 07:47:38;;;;;;;15.60;11.05;;;2.50;99.90;;;;;;5052464;28;20031;-78
2021/01/11 07:50:06;;;;;;;16.58;11.15;;;2.50;99.90;;;;;;5039715;28;20087;-78
2021/01/11 07:52:31;;;;;;;16.27;11.00;;;2.40;99.90;;;;;;5063804;28;20337;-79
2021/01/11 07:55:07;;;;;;;17.98;11.65;;;2.40;99.90;;;;;;5049810;28;20059;-78
2021/01/11 07:57:33;;;;;;;16.15;10.93;;;2.50;99.90;;;;;;5051138;28;20107;-78
2021/01/11 08:00:06;;;;;;;16.70;11.50;;;2.50;99.90;;;;;;5057354;28;20049;-79
2021/01/11 08:02:32;;;;;;;18.52;11.65;;;2.40;99.90;;;;;;5044005;28;20115;-78
2021/01/11 08:04:58;;;;;;;19.00;12.20;;;2.40;99.90;;;;;;5051405;28;20120;-79
2021/01/11 08:07:29;;;;;;;16.08;11.13;;;2.40;99.90;;;;;;5052752;28;20077;-78
2021/01/11 08:09:57;;;;;;;16.23;11.70;;;2.40;99.90;;;;;;5052354;28;20025;-79
2021/01/11 08:12:24;;;;;;;20.42;13.23;;;2.40;99.90;;;;;;5050488;28;20491;-78
2021/01/11 08:14:51;;;;;;;17.95;12.68;;;2.40;99.90;;;;;;5050294;28;20021;-78
2021/01/11 08:17:22;;;;;;;19.27;12.20;;;2.40;99.90;;;;;;5050693;28;20018;-78
2021/01/11 08:19:51;;;;;;;16.92;12.20;;;2.40;99.90;;;;;;5054202;28;20041;-79
2021/01/11 08:22:18;;;;;;;17.90;12.90;;;2.40;99.90;;;;;;5050781;28;20025;-78
2021/01/11 08:24:48;;;;;;;18.80;13.35;;;2.40;99.90;;;;;;5050257;28;20103;-78
2021/01/11 08:27:40;;;;;;;17.73;13.13;;;2.40;99.90;;;;;;5052833;28;20029;-79
2021/01/11 08:30:08;;;;;;;19.15;13.45;;;2.40;99.90;;;;;;5056156;28;20124;-78
2021/01/11 08:32:34;;;;;;;21.17;14.55;;;2.40;99.90;;;;;;5052586;28;20479;-78
2021/01/11 08:35:13;;;;;;;20.88;14.18;;;2.40;99.90;;;;;;5050497;28;20029;-79
2021/01/11 08:37:40;;;;;;;20.80;14.07;;;2.40;99.90;;;;;;5050556;28;20306;-78
2021/01/11 08:40:10;;;;;;;22.15;14.77;;;2.40;99.90;;;;;;5055563;28;20024;-78
2021/01/11 08:42:37;;;;;;;20.50;14.27;;;2.50;99.90;;;;;;5053529;28;20391;-78
2021/01/11 08:45:28;;;;;;;20.33;14.57;;;2.50;99.90;;;;;;5050644;28;20123;-79
2021/01/11 08:47:58;;;;;;;19.45;14.10;;;2.50;99.90;;;;;;5042361;28;20123;-78
2021/01/11 08:50:24;;;;;;;23.30;14.95;;;2.40;99.90;;;;;;5050836;28;20043;-79
2021/01/11 08:52:50;;;;;;;21.13;15.20;;;2.50;99.90;;;;;;5047790;28;20487;-78
2021/01/11 08:55:18;;;;;;;17.80;13.77;;;2.50;99.90;;;;;;5048395;28;20379;-79
2021/01/11 08:57:55;;;;;;;22.92;15.05;;;2.40;99.90;;;;;;5049684;28;20052;-79
2021/01/11 09:00:21;;;;;;;20.80;14.40;;;2.40;99.90;;;;;;5048207;28;20025;-80
2021/01/11 09:02:47;;;;;;;20.52;13.68;;;2.50;99.90;;;;;;5049341;28;20380;-78
2021/01/11 09:05:18;;;;;;;20.42;14.48;;;2.50;99.90;;;;;;5049442;28;20108;-79
2021/01/11 09:07:45;;;;;;;19.98;14.77;;;2.50;99.90;;;;;;5052024;28;20044;-78
2021/01/11 09:10:18;;;;;;;20.73;16.30;;;2.50;99.90;;;;;;5052085;28;20028;-78
2021/01/11 09:12:44;;;;;;;21.85;15.40;;;2.50;99.90;;;;;;5063760;28;20091;-78
2021/01/11 09:15:11;;;;;;;23.38;16.27;;;2.50;99.90;;;;;;5050149;28;20036;-78
2021/01/11 09:17:36;;;;;;;25.70;17.48;;;2.50;99.90;;;;;;5045877;28;20506;-78
2021/01/11 09:20:05;;;;;;;28.05;17.70;;;2.50;99.90;;;;;;5049132;28;20181;-78
2021/01/11 09:22:35;;;;;;;28.08;17.55;;;2.50;99.90;;;;;;5050294;28;20124;-79
2021/01/11 09:25:05;;;;;;;28.05;18.60;;;2.50;99.90;;;;;;5051851;28;20029;-78
2021/01/11 09:27:31;;;;;;;27.48;17.95;;;2.50;99.90;;;;;;5048685;28;20035;-78
2021/01/11 09:29:56;;;;;;;26.00;18.55;;;2.60;99.90;;;;;;5047314;28;20024;-78
2021/01/11 09:32:22;;;;;;;31.65;18.67;;;2.60;99.90;;;;;;5050481;28;20025;-78
2021/01/11 09:34:49;;;;;;;30.33;18.17;;;2.60;99.90;;;;;;5051550;28;20024;-79
2021/01/11 09:37:15;;;;;;;34.50;19.98;;;2.60;99.90;;;;;;5048313;28;20103;-78
2021/01/11 09:39:41;;;;;;;33.67;21.52;;;2.70;99.90;;;;;;5051893;28;20096;-80
2021/01/11 09:42:07;;;;;;;30.50;21.17;;;2.70;99.90;;;;;;5043735;28;20458;-79
2021/01/11 09:44:33;;;;;;;32.70;20.02;;;2.70;99.90;;;;;;5050586;28;21372;-79
2021/01/11 09:47:00;;;;;;;35.25;22.55;;;2.70;99.90;;;;;;5050062;28;20053;-78
2021/01/11 09:49:26;;;;;;;37.30;21.77;;;2.70;99.90;;;;;;5047928;28;20025;-78
2021/01/11 09:51:52;;;;;;;36.53;22.20;;;2.70;99.90;;;;;;5049712;28;20024;-78
2021/01/11 09:54:19;;;;;;;37.88;20.98;;;2.70;99.90;;;;;;5047372;28;20021;-78
2021/01/11 09:56:45;;;;;;;33.45;20.08;;;2.70;99.90;;;;;;5049309;28;20041;-78
2021/01/11 09:59:12;;;;;;;35.85;22.40;;;2.70;99.90;;;;;;5050842;28;20097;-78
2021/01/11 10:01:42;;;;;;;33.83;21.60;;;2.70;99.90;;;;;;5050367;28;20021;-78
2021/01/11 10:04:09;;;;;;;35.58;21.95;;;2.70;99.90;;;;;;5039241;28;20480;-78
2021/01/11 10:06:39;;;;;;;38.75;22.05;;;2.70;99.90;;;;;;5049913;28;20071;-80
2021/01/11 10:09:05;;;;;;;40.72;22.92;;;2.70;99.90;;;;;;5051075;28;20115;-78
2021/01/11 10:11:31;;;;;;;35.92;21.27;;;2.70;99.90;;;;;;5050116;28;20075;-78
2021/01/11 10:13:57;;;;;;;36.85;22.60;;;2.60;99.90;;;;;;5049912;28;20503;-78
2021/01/11 10:16:23;;;;;;;34.72;21.77;;;2.70;99.90;;;;;;5052533;28;20037;-78
2021/01/11 10:18:48;;;;;;;40.80;22.10;;;2.70;99.90;;;;;;5047410;28;20018;-78
2021/01/11 10:21:14;;;;;;;38.90;22.08;;;2.70;99.90;;;;;;5047260;28;20025;-78
2021/01/11 10:23:39;;;;;;;38.90;20.50;;;2.70;99.90;;;;;;5054273;28;20025;-79
2021/01/11 10:26:05;;;;;;;39.42;21.55;;;2.60;99.90;;;;;;5056152;28;20029;-79
2021/01/11 10:28:31;;;;;;;33.35;20.90;;;2.60;99.90;;;;;;5047743;28;20029;-80
2021/01/11 10:30:57;;;;;;;37.97;21.05;;;2.70;99.90;;;;;;5045322;28;20492;-79
2021/01/11 10:33:23;;;;;;;32.05;19.38;;;2.70;99.90;;;;;;5045386;28;20041;-80
2021/01/11 10:35:54;;;;;;;38.75;20.02;;;2.70;99.90;;;;;;5048356;28;20430;-80
2021/01/11 10:38:20;;;;;;;36.65;20.42;;;2.60;99.90;;;;;;5048563;28;20036;-79
2021/01/11 10:40:45;;;;;;;35.90;20.13;;;2.70;99.90;;;;;;5047560;28;20024;-80
2021/01/11 10:43:11;;;;;;;36.83;20.15;;;2.70;99.90;;;;;;5048659;28;20039;-79
2021/01/11 10:45:36;;;;;;;40.22;21.08;;;2.60;99.90;;;;;;5049880;28;20029;-79
2021/01/11 10:48:02;;;;;;;38.85;20.95;;;2.60;99.90;;;;;;5050554;28;20483;-78
2021/01/11 10:50:28;;;;;;;35.70;20.40;;;2.60;99.90;;;;;;5049224;28;20033;-81
2021/01/11 10:52:54;;;;;;;34.03;18.65;;;2.60;99.90;;;;;;5047005;28;20025;-80
2021/01/11 10:55:19;;;;;;;35.67;20.30;;;2.60;99.90;;;;;;5048071;28;20037;-79
2021/01/11 10:57:45;;;;;;;34.42;19.13;;;2.60;99.90;;;;;;5050275;28;20530;-80
2021/01/11 11:00:12;;;;;;;34.30;20.17;;;2.60;99.90;;;;;;5052318;28;20025;-79
2021/01/11 11:02:39;;;;;;;34.20;18.50;;;2.60;99.90;;;;;;5062978;28;20021;-80
2021/01/11 11:05:06;;;;;;;35.42;19.23;;;2.60;99.90;;;;;;5055175;28;20032;-79
2021/01/11 11:07:36;;;;;;;33.45;18.75;;;2.60;99.90;;;;;;5051363;28;20018;-80
2021/01/11 11:10:05;;;;;;;36.53;19.15;;;2.60;99.90;;;;;;5049112;28;20033;-80
2021/01/11 11:12:31;;;;;;;38.35;19.30;;;2.60;99.90;;;;;;5045532;28;20108;-79
2021/01/11 11:14:59;;;;;;;35.45;19.58;;;2.60;99.90;;;;;;5049375;28;20055;-78
2021/01/11 11:17:28;;;;;;;36.42;18.88;;;2.60;99.90;;;;;;5050057;28;20055;-80
2021/01/11 11:19:53;;;;;;;33.83;18.20;;;2.60;99.90;;;;;;5047909;28;20025;-81
2021/01/11 11:22:19;;;;;;;29.52;18.98;;;2.60;99.90;;;;;;5049183;28;20039;-80
2021/01/11 11:24:45;;;;;;;32.75;17.60;;;2.60;99.90;;;;;;5050676;28;20037;-79
2021/01/11 11:27:10;;;;;;;33.95;18.15;;;2.60;99.90;;;;;;5046748;28;20021;-80
2021/01/11 11:29:36;;;;;;;33.63;17.92;;;2.50;99.90;;;;;;5052330;28;20039;-80
2021/01/11 11:32:03;;;;;;;31.73;17.35;;;2.50;99.90;;;;;;5049555;28;20033;-81
2021/01/11 11:34:29;;;;;;;27.42;15.00;;;2.50;99.90;;;;;;5049661;28;20116;-81
2021/01/11 11:36:56;;;;;;;25.55;15.65;;;2.60;99.90;;;;;;5049380;28;20025;-78
2021/01/11 11:39:21;;;;;;;27.60;13.98;;;2.50;99.90;;;;;;5051870;28;20017;-80
2021/01/11 11:41:47;;;;;;;25.35;14.63;;;2.50;99.90;;;;;;5050060;28;20032;-79
2021/01/11 11:44:13;;;;;;;24.65;15.25;;;2.60;99.90;;;;;;5050832;28;20049;-79
2021/01/11 11:46:38;;;;;;;25.83;14.60;;;2.60;99.90;;;;;;5040650;28;20032;-81
2021/01/11 11:49:04;;;;;;;24.35;13.57;;;2.60;99.90;;;;;;5047799;28;20075;-80
2021/01/11 11:51:30;;;;;;;22.35;14.18;;;2.60;99.90;;;;;;5046714;28;20033;-80
2021/01/11 11:53:56;;;;;;;23.67;14.63;;;2.60;99.90;;;;;;5048995;28;20502;-78
2021/01/11 11:56:22;;;;;;;20.13;12.18;;;2.60;99.90;;;;;;5048736;28;20025;-83
2021/01/11 11:58:47;;;;;;;20.85;13.35;;;2.60;99.90;;;;;;5048950;28;20025;-79
2021/01/11 12:01:13;;;;;;;27.95;14.23;;;2.60;99.90;;;;;;5050622;28;20372;-80
2021/01/11 12:03:38;;;;;;;21.52;13.57;;;2.60;99.90;;;;;;5051260;28;20044;-79
2021/01/11 12:06:04;;;;;;;22.17;12.93;;;2.60;99.90;;;;;;5048547;28;20214;-81
2021/01/11 12:08:30;;;;;;;19.80;13.60;;;2.60;99.90;;;;;;5047410;28;20110;-79
2021/01/11 12:10:56;;;;;;;21.88;13.50;;;2.60;99.90;;;;;;5052108;28;20036;-81
2021/01/11 12:13:22;;;;;;;21.83;14.02;;;2.60;99.90;;;;;;5052563;28;20693;-81
2021/01/11 12:15:48;;;;;;;21.95;12.63;;;2.60;99.90;;;;;;5047793;28;20074;-79
2021/01/11 12:18:13;;;;;;;22.13;14.40;;;2.60;99.90;;;;;;5052724;28;20033;-80
2021/01/11 12:20:39;;;;;;;23.90;13.13;;;2.60;99.90;;;;;;5060675;28;20094;-81
2021/01/11 12:23:04;;;;;;;20.63;13.02;;;2.60;99.90;;;;;;5064179;28;20096;-78
2021/01/11 12:25:30;;;;;;;20.02;12.98;;;2.50;99.90;;;;;;5052949;28;20491;-79
2021/01/11 12:27:56;;;;;;;19.83;12.55;;;2.60;99.90;;;;;;5051513;28;20102;-79
2021/01/11 12:30:22;;;;;;;25.05;14.82;;;2.50;99.90;;;;;;5052291;28;20025;-80
2021/01/11 12:32:47;;;;;;;25.77;15.25;;;2.50;99.90;;;;;;5052636;28;20025;-80
2021/01/11 12:35:14;;;;;;;23.98;14.57;;;2.60;99.90;;;;;;5048185;28;20025;-81
2021/01/11 12:37:40;;;;;;;24.48;14.85;;;2.60;99.90;;;;;;5048345;28;20528;-80
2021/01/11 12:40:06;;;;;;;23.50;14.85;;;2.60;99.90;;;;;;5052139;28;20021;-79